Lena — V2FR — position and weather

sailwx.info

Track history (hours):
 
Tides and Currents Weather Stations Pressure Air Temp Water Temp Dewpoint Dewpoint Depression Visibility Wind Speed Wind Dir Waves Ship Positions

Lena

Last reported at 2018-Mar-29 21:41 UTC. Time now 2018-Apr-21 19:17 UTC.
Position N 21°25' E 072°12'.
Warning: this ship's position is 22 days out of date.

Length 152 m; draft 6 m.

Type: Ship. MMSI: 304080808.

Date/timePositionNaut miles runAvg speedWind from/ knotsBaromVisibWave heightAir tempDewpointWater temp
2018-Mar-29 21:41N 21°25' E 072°12'0 0.0
2018-Mar-29 21:30N 21°25' E 072°12'4 8.0
2018-Mar-29 21:00N 21°21' E 072°14'1 2.2
2018-Mar-29 20:30N 21°22' E 072°13'0 0.2
2018-Mar-29 19:54N 21°22' E 072°13'0 0.0
2018-Mar-29 19:30N 21°22' E 072°13'0 0.0
2018-Mar-29 19:00N 21°22' E 072°13'0 0.0
2018-Mar-29 18:30N 21°22' E 072°13'0 0.1
2018-Mar-29 18:00N 21°22' E 072°13'0 0.0
2018-Mar-29 17:29N 21°22' E 072°13'0 0.0
2018-Mar-29 17:00N 21°22' E 072°13'0 0.0
2018-Mar-29 16:06N 21°22' E 072°13'0 0.1
2018-Mar-29 16:00N 21°22' E 072°13'0 0.0
2018-Mar-29 15:31N 21°22' E 072°13'0 0.0
2018-Mar-29 15:00N 21°22' E 072°13'0 0.0
2018-Mar-29 14:30N 21°22' E 072°13'0 0.0
2018-Mar-29 13:55N 21°22' E 072°13'0 0.0
2018-Mar-29 13:25N 21°22' E 072°13'0 0.1
2018-Mar-29 12:55N 21°22' E 072°13'0 0.0
2018-Mar-29 12:30N 21°22' E 072°13'0 0.0
2018-Mar-29 11:55N 21°22' E 072°13'0 0.0
2018-Mar-29 11:25N 21°22' E 072°13'0 0.1
2018-Mar-29 10:55N 21°22' E 072°13'0 0.0
2018-Mar-29 10:18N 21°22' E 072°13'0 0.0
2018-Mar-29 09:54N 21°22' E 072°13'0 0.0
2018-Mar-29 09:25N 21°22' E 072°13'0 0.0
2018-Mar-29 09:00N 21°22' E 072°13'0 0.0
2018-Mar-29 08:30N 21°22' E 072°13'0 0.0
2018-Mar-29 08:00N 21°22' E 072°13'0 0.0
2018-Mar-29 07:30N 21°22' E 072°13'0 0.0
2018-Mar-29 06:57N 21°22' E 072°13'0 0.1
2018-Mar-29 06:30N 21°22' E 072°13'3 5.4
2018-Mar-29 06:00N 21°23' E 072°16'815.8
2018-Mar-29 05:30N 21°29' E 072°22'816.2
2018-Mar-29 05:00N 21°36' E 072°25'4 6.4
2018-Mar-29 04:22N 21°40' E 072°26'0 0.1
2018-Mar-29 03:40N 21°40' E 072°26'0 0.0
2018-Mar-29 02:34N 21°40' E 072°26'0 0.0
2018-Mar-29 02:16N 21°40' E 072°26'0 0.0
2018-Mar-29 01:58N 21°40' E 072°26'0 0.0
2018-Mar-29 01:22N 21°40' E 072°26'0 0.0
2018-Mar-29 00:58N 21°40' E 072°26'0 0.0
2018-Mar-29 00:28N 21°40' E 072°26'0 0.0
2018-Mar-28 23:58N 21°40' E 072°26'0 0.0
2018-Mar-28 23:28N 21°40' E 072°26'0 0.1
2018-Mar-28 22:52N 21°40' E 072°26'0 0.1
2018-Mar-28 22:16N 21°40' E 072°26'0 0.0
2018-Mar-28 21:52N 21°40' E 072°26'0 0.0
2018-Mar-28 21:28N 21°40' E 072°26'0 0.0
2018-Mar-28 20:40N 21°40' E 072°26'0 0.0
2018-Mar-28 20:22N 21°40' E 072°26'0 0.0
2018-Mar-28 19:46N 21°40' E 072°26'0 0.0
2018-Mar-28 19:28N 21°40' E 072°26'0 0.0
2018-Mar-28 18:58N 21°40' E 072°26'0 0.0
2018-Mar-28 18:28N 21°40' E 072°26'0 0.0
2018-Mar-28 17:22N 21°40' E 072°26'0 0.1
2018-Mar-28 16:52N 21°40' E 072°26'0 0.0
2018-Mar-28 16:22N 21°40' E 072°26'0 0.1
2018-Mar-28 15:52N 21°40' E 072°26'0 0.1
2018-Mar-28 15:28N 21°40' E 072°26'0 0.0
2018-Mar-28 14:58N 21°40' E 072°26'0 0.0
2018-Mar-28 14:28N 21°40' E 072°26'0 0.0
2018-Mar-28 13:58N 21°40' E 072°26'0 0.0
2018-Mar-28 11:28N 21°40' E 072°26'0 0.0
2018-Mar-28 10:40N 21°40' E 072°26'0 0.1
2018-Mar-28 10:22N 21°40' E 072°26'0 0.0
2018-Mar-28 08:46N 21°40' E 072°26'0 0.0
2018-Mar-28 08:28N 21°40' E 072°26'0 0.0
2018-Mar-28 07:46N 21°40' E 072°26'0 0.0
2018-Mar-28 07:04N 21°40' E 072°26'0 0.0
2018-Mar-28 06:34N 21°40' E 072°26'0 0.1
2018-Mar-28 06:28N 21°40' E 072°26'0 0.0
2018-Mar-28 05:58N 21°40' E 072°26'0 0.0
2018-Mar-28 05:28N 21°40' E 072°26'0 0.0
2018-Mar-28 03:10N 21°40' E 072°26'0 0.0
2018-Mar-28 02:58N 21°40' E 072°26'0 0.0
2018-Mar-28 02:28N 21°40' E 072°26'0 0.0
2018-Mar-28 01:58N 21°40' E 072°26'0 0.0
2018-Mar-28 00:16N 21°40' E 072°26'0 0.0
2018-Mar-27 23:58N 21°40' E 072°26'0 0.0
2018-Mar-27 23:28N 21°40' E 072°26'0 0.1
2018-Mar-27 22:46N 21°40' E 072°26'0 0.0
2018-Mar-27 22:22N 21°40' E 072°26'0 0.0
2018-Mar-27 21:58N 21°40' E 072°26'0 0.1
2018-Mar-27 21:22N 21°40' E 072°26'0 0.1
2018-Mar-27 20:58N 21°40' E 072°26'0 0.0
2018-Mar-27 20:28N 21°40' E 072°26'0 0.0
2018-Mar-27 19:52N 21°40' E 072°26'0 0.0
2018-Mar-27 19:28N 21°40' E 072°26'0 0.0
2018-Mar-27 18:58N 21°40' E 072°26'0 0.0
2018-Mar-27 18:28N 21°40' E 072°26'0 0.0
2018-Mar-27 17:58N 21°40' E 072°26'0 0.0
2018-Mar-27 17:28N 21°40' E 072°26'0 0.0
2018-Mar-27 16:46N 21°40' E 072°26'0 0.0
2018-Mar-27 16:28N 21°40' E 072°26'0 0.1
2018-Mar-27 15:58N 21°40' E 072°26'0 0.1
2018-Mar-27 15:28N 21°40' E 072°26'0 0.0
2018-Mar-27 14:58N 21°40' E 072°26'0 0.0
2018-Mar-27 07:10N 21°40' E 072°26'0 0.0
2018-Mar-27 06:52N 21°40' E 072°26'0 0.0
2018-Mar-27 06:16N 21°40' E 072°26'0 0.0
2018-Mar-27 05:58N 21°40' E 072°26'0 0.0
2018-Mar-27 05:28N 21°40' E 072°26'0 0.0
2018-Mar-27 04:58N 21°40' E 072°26'0 0.0
2018-Mar-27 04:28N 21°40' E 072°26'0 0.1
2018-Mar-27 03:58N 21°40' E 072°26'0 0.0
2018-Mar-27 03:28N 21°40' E 072°26'0 0.1
2018-Mar-27 02:58N 21°40' E 072°26'0 0.0
2018-Mar-27 02:16N 21°40' E 072°26'0 0.0
2018-Mar-27 01:52N 21°40' E 072°26'0 0.0
2018-Mar-27 01:28N 21°40' E 072°26'0 0.0
2018-Mar-26 20:40N 21°40' E 072°26'0 0.1
2018-Mar-26 20:16N 21°40' E 072°26'0 0.1
2018-Mar-26 19:58N 21°40' E 072°26'0 0.0
2018-Mar-26 19:28N 21°40' E 072°26'0 0.0
2018-Mar-26 18:52N 21°40' E 072°26'0 0.0
2018-Mar-26 07:04N 21°40' E 072°26'0 0.1
2018-Mar-26 06:58N 21°40' E 072°26'0 0.0
2018-Mar-26 06:22N 21°40' E 072°26'0 0.0
2018-Mar-26 05:58N 21°40' E 072°26'0 0.0
2018-Mar-26 05:28N 21°40' E 072°26'0 0.0
2018-Mar-26 04:46N 21°40' E 072°26'0 0.0
2018-Mar-26 04:28N 21°40' E 072°26'0 0.0
2018-Mar-26 03:58N 21°40' E 072°26'0 0.0
2018-Mar-26 03:28N 21°40' E 072°26'0 0.0
2018-Mar-26 02:58N 21°40' E 072°26'0 0.0
2018-Mar-25 16:58N 21°40' E 072°26'0 0.0
2018-Mar-25 16:16N 21°40' E 072°26'0 0.0
2018-Mar-25 15:46N 21°40' E 072°26'0 0.0
2018-Mar-25 15:22N 21°40' E 072°26'0 0.0
2018-Mar-25 14:58N 21°40' E 072°26'0 0.0
2018-Mar-25 14:28N 21°40' E 072°26'0 0.0
2018-Mar-25 13:58N 21°40' E 072°26'0 0.0
2018-Mar-25 13:28N 21°40' E 072°26'0 0.0
2018-Mar-25 12:58N 21°40' E 072°26'0 0.1
2018-Mar-25 12:28N 21°40' E 072°26'0 0.0
2018-Mar-25 10:58N 21°40' E 072°26'0 0.0
2018-Mar-25 10:22N 21°40' E 072°26'0 0.0
2018-Mar-25 08:34N 21°40' E 072°26'0 0.0
2018-Mar-25 05:40N 21°40' E 072°26'0 0.1
2018-Mar-25 05:28N 21°40' E 072°26'0 0.0
2018-Mar-25 04:58N 21°40' E 072°26'0 0.0
2018-Mar-25 04:22N 21°40' E 072°26'0 0.0
2018-Mar-25 03:58N 21°40' E 072°26'0 0.0
2018-Mar-25 03:28N 21°40' E 072°26'0 0.0
2018-Mar-25 02:52N 21°40' E 072°26'0 0.0
2018-Mar-25 02:28N 21°40' E 072°26'0 0.0
2018-Mar-25 01:52N 21°40' E 072°26'0 0.1
2018-Mar-25 01:28N 21°40' E 072°26'0 0.0
2018-Mar-24 23:04N 21°40' E 072°26'0 0.0
2018-Mar-24 22:40N 21°40' E 072°26'0 0.0
2018-Mar-24 22:16N 21°40' E 072°26'0 0.0
2018-Mar-24 21:58N 21°40' E 072°26'0 0.0
2018-Mar-24 21:22N 21°40' E 072°26'0 0.0
2018-Mar-24 20:28N 21°40' E 072°26'0 0.0
2018-Mar-24 19:46N 21°40' E 072°26'0 0.0
2018-Mar-24 19:28N 21°40' E 072°26'0 0.0
2018-Mar-24 18:58N 21°40' E 072°26'0 0.0
2018-Mar-24 18:28N 21°40' E 072°26'0 0.0
2018-Mar-24 17:58N 21°40' E 072°26'0 0.0
2018-Mar-24 17:22N 21°40' E 072°26'0 0.1
2018-Mar-24 16:46N 21°40' E 072°26'0 0.1
2018-Mar-24 16:28N 21°40' E 072°26'0 0.0
2018-Mar-24 15:58N 21°40' E 072°26'0 0.0
2018-Mar-24 15:28N 21°40' E 072°26'0 0.0
2018-Mar-24 14:58N 21°40' E 072°26'0 0.0
2018-Mar-24 14:28N 21°40' E 072°26'0 0.0
2018-Mar-24 13:59N 21°40' E 072°26'0 0.0
2018-Mar-24 13:29N 21°40' E 072°26'0 0.0
2018-Mar-24 12:59N 21°40' E 072°26'0 0.0
2018-Mar-24 12:29N 21°40' E 072°26'0 0.0
2018-Mar-24 12:00N 21°40' E 072°26'0 0.2
2018-Mar-24 11:30N 21°40' E 072°26'0 0.0
2018-Mar-24 07:33N 21°40' E 072°26'0 0.1
2018-Mar-24 07:30N 21°40' E 072°26'0 0.4
2018-Mar-24 07:00N 21°40' E 072°26'0 0.8
2018-Mar-24 06:30N 21°40' E 072°26'2 4.8
2018-Mar-24 06:00N 21°38' E 072°26'4 8.9
2018-Mar-24 05:30N 21°33' E 072°25'611.3
2018-Mar-24 05:00N 21°28' E 072°22'611.2
2018-Mar-24 04:30N 21°23' E 072°19'611.3
2018-Mar-24 04:00N 21°18' E 072°16'611.7
2018-Mar-24 03:29N 21°13' E 072°14'611.8
2018-Mar-24 03:00N 21°09' E 072°09'612.2
2018-Mar-24 02:30N 21°06' E 072°04'612.3
2018-Mar-24 02:00N 21°02' E 071°58'713.4
2018-Mar-24 01:30N 20°58' E 071°53'815.6
2018-Mar-24 01:00N 20°53' E 071°46'1016.9
2018-Mar-24 00:23N 20°48' E 071°36'616.6
2018-Mar-24 00:01N 20°45' E 071°31'816.8
2018-Mar-23 23:30N 20°40' E 071°23'917.3
2018-Mar-23 23:00N 20°36' E 071°15'918.0
2018-Mar-23 22:31N 20°30' E 071°08'917.8
2018-Mar-23 22:00N 20°25' E 070°59'817.2
2018-Mar-23 21:31N 20°19' E 070°53'917.2
2018-Mar-23 21:00N 20°12' E 070°49'917.2
2018-Mar-23 20:30N 20°04' E 070°46'917.2
2018-Mar-23 20:00N 19°56' E 070°42'817.0
2018-Mar-23 19:31N 19°48' E 070°38'917.2
2018-Mar-23 19:00N 19°40' E 070°34'917.1
2018-Mar-23 18:30N 19°32' E 070°30'1117.0
2018-Mar-23 17:52N 19°23' E 070°26'617.0
2018-Mar-23 17:30N 19°16' E 070°26'916.8
2018-Mar-23 17:00N 19°08' E 070°26'817.0
2018-Mar-23 16:30N 18°60' E 070°26'917.0
2018-Mar-23 15:59N 18°51' E 070°26'816.8
2018-Mar-23 15:30N 18°43' E 070°27'2816.6
2018-Mar-23 13:48N 18°19' E 070°43'517.2
2018-Mar-23 13:30N 18°15' E 070°47'6216.6
2018-Mar-23 09:45N 17°18' E 071°12'517.6
2018-Mar-23 09:27N 17°14' E 071°16'  
Track history (hours):
 
Tides and Currents Weather Stations Pressure Air Temp Water Temp Dewpoint Dewpoint Depression Visibility Wind Speed Wind Dir Waves Ship Positions

Lena

Last reported at 2018-Mar-29 21:41 UTC. Time now 2018-Apr-21 19:17 UTC.
Position N 21°25' E 072°12'.
Warning: this ship's position is 22 days out of date.

Length 152 m; draft 6 m.

Type: Ship. MMSI: 304080808.

Date/timePositionNaut miles runAvg speedWind from/ knotsBaromVisibWave heightAir tempDewpointWater temp
2018-Mar-29 21:41N 21°25' E 072°12'0 0.0
2018-Mar-29 21:30N 21°25' E 072°12'4 8.0
2018-Mar-29 21:00N 21°21' E 072°14'1 2.2
2018-Mar-29 20:30N 21°22' E 072°13'0 0.2
2018-Mar-29 19:54N 21°22' E 072°13'0 0.0
2018-Mar-29 19:30N 21°22' E 072°13'0 0.0
2018-Mar-29 19:00N 21°22' E 072°13'0 0.0
2018-Mar-29 18:30N 21°22' E 072°13'0 0.1
2018-Mar-29 18:00N 21°22' E 072°13'0 0.0
2018-Mar-29 17:29N 21°22' E 072°13'0 0.0
2018-Mar-29 17:00N 21°22' E 072°13'0 0.0
2018-Mar-29 16:06N 21°22' E 072°13'0 0.1
2018-Mar-29 16:00N 21°22' E 072°13'0 0.0
2018-Mar-29 15:31N 21°22' E 072°13'0 0.0
2018-Mar-29 15:00N 21°22' E 072°13'0 0.0
2018-Mar-29 14:30N 21°22' E 072°13'0 0.0
2018-Mar-29 13:55N 21°22' E 072°13'0 0.0
2018-Mar-29 13:25N 21°22' E 072°13'0 0.1
2018-Mar-29 12:55N 21°22' E 072°13'0 0.0
2018-Mar-29 12:30N 21°22' E 072°13'0 0.0
2018-Mar-29 11:55N 21°22' E 072°13'0 0.0
2018-Mar-29 11:25N 21°22' E 072°13'0 0.1
2018-Mar-29 10:55N 21°22' E 072°13'0 0.0
2018-Mar-29 10:18N 21°22' E 072°13'0 0.0
2018-Mar-29 09:54N 21°22' E 072°13'0 0.0
2018-Mar-29 09:25N 21°22' E 072°13'0 0.0
2018-Mar-29 09:00N 21°22' E 072°13'0 0.0
2018-Mar-29 08:30N 21°22' E 072°13'0 0.0
2018-Mar-29 08:00N 21°22' E 072°13'0 0.0
2018-Mar-29 07:30N 21°22' E 072°13'0 0.0
2018-Mar-29 06:57N 21°22' E 072°13'0 0.1
2018-Mar-29 06:30N 21°22' E 072°13'3 5.4
2018-Mar-29 06:00N 21°23' E 072°16'815.8
2018-Mar-29 05:30N 21°29' E 072°22'816.2
2018-Mar-29 05:00N 21°36' E 072°25'4 6.4
2018-Mar-29 04:22N 21°40' E 072°26'0 0.1
2018-Mar-29 03:40N 21°40' E 072°26'0 0.0
2018-Mar-29 02:34N 21°40' E 072°26'0 0.0
2018-Mar-29 02:16N 21°40' E 072°26'0 0.0
2018-Mar-29 01:58N 21°40' E 072°26'0 0.0
2018-Mar-29 01:22N 21°40' E 072°26'0 0.0
2018-Mar-29 00:58N 21°40' E 072°26'0 0.0
2018-Mar-29 00:28N 21°40' E 072°26'0 0.0
2018-Mar-28 23:58N 21°40' E 072°26'0 0.0
2018-Mar-28 23:28N 21°40' E 072°26'0 0.1
2018-Mar-28 22:52N 21°40' E 072°26'0 0.1
2018-Mar-28 22:16N 21°40' E 072°26'0 0.0
2018-Mar-28 21:52N 21°40' E 072°26'0 0.0
2018-Mar-28 21:28N 21°40' E 072°26'0 0.0
2018-Mar-28 20:40N 21°40' E 072°26'0 0.0
2018-Mar-28 20:22N 21°40' E 072°26'0 0.0
2018-Mar-28 19:46N 21°40' E 072°26'0 0.0
2018-Mar-28 19:28N 21°40' E 072°26'0 0.0
2018-Mar-28 18:58N 21°40' E 072°26'0 0.0
2018-Mar-28 18:28N 21°40' E 072°26'0 0.0
2018-Mar-28 17:22N 21°40' E 072°26'0 0.1
2018-Mar-28 16:52N 21°40' E 072°26'0 0.0
2018-Mar-28 16:22N 21°40' E 072°26'0 0.1
2018-Mar-28 15:52N 21°40' E 072°26'0 0.1
2018-Mar-28 15:28N 21°40' E 072°26'0 0.0
2018-Mar-28 14:58N 21°40' E 072°26'0 0.0
2018-Mar-28 14:28N 21°40' E 072°26'0 0.0
2018-Mar-28 13:58N 21°40' E 072°26'0 0.0
2018-Mar-28 11:28N 21°40' E 072°26'0 0.0
2018-Mar-28 10:40N 21°40' E 072°26'0 0.1
2018-Mar-28 10:22N 21°40' E 072°26'0 0.0
2018-Mar-28 08:46N 21°40' E 072°26'0 0.0
2018-Mar-28 08:28N 21°40' E 072°26'0 0.0
2018-Mar-28 07:46N 21°40' E 072°26'0 0.0
2018-Mar-28 07:04N 21°40' E 072°26'0 0.0
2018-Mar-28 06:34N 21°40' E 072°26'0 0.1
2018-Mar-28 06:28N 21°40' E 072°26'0 0.0
2018-Mar-28 05:58N 21°40' E 072°26'0 0.0
2018-Mar-28 05:28N 21°40' E 072°26'0 0.0
2018-Mar-28 03:10N 21°40' E 072°26'0 0.0
2018-Mar-28 02:58N 21°40' E 072°26'0 0.0
2018-Mar-28 02:28N 21°40' E 072°26'0 0.0
2018-Mar-28 01:58N 21°40' E 072°26'0 0.0
2018-Mar-28 00:16N 21°40' E 072°26'0 0.0
2018-Mar-27 23:58N 21°40' E 072°26'0 0.0
2018-Mar-27 23:28N 21°40' E 072°26'0 0.1
2018-Mar-27 22:46N 21°40' E 072°26'0 0.0
2018-Mar-27 22:22N 21°40' E 072°26'0 0.0
2018-Mar-27 21:58N 21°40' E 072°26'0 0.1
2018-Mar-27 21:22N 21°40' E 072°26'0 0.1
2018-Mar-27 20:58N 21°40' E 072°26'0 0.0
2018-Mar-27 20:28N 21°40' E 072°26'0 0.0
2018-Mar-27 19:52N 21°40' E 072°26'0 0.0
2018-Mar-27 19:28N 21°40' E 072°26'0 0.0
2018-Mar-27 18:58N 21°40' E 072°26'0 0.0
2018-Mar-27 18:28N 21°40' E 072°26'0 0.0
2018-Mar-27 17:58N 21°40' E 072°26'0 0.0
2018-Mar-27 17:28N 21°40' E 072°26'0 0.0
2018-Mar-27 16:46N 21°40' E 072°26'0 0.0
2018-Mar-27 16:28N 21°40' E 072°26'0 0.1
2018-Mar-27 15:58N 21°40' E 072°26'0 0.1
2018-Mar-27 15:28N 21°40' E 072°26'0 0.0
2018-Mar-27 14:58N 21°40' E 072°26'0 0.0
2018-Mar-27 07:10N 21°40' E 072°26'0 0.0
2018-Mar-27 06:52N 21°40' E 072°26'0 0.0
2018-Mar-27 06:16N 21°40' E 072°26'0 0.0
2018-Mar-27 05:58N 21°40' E 072°26'0 0.0
2018-Mar-27 05:28N 21°40' E 072°26'0 0.0
2018-Mar-27 04:58N 21°40' E 072°26'0 0.0
2018-Mar-27 04:28N 21°40' E 072°26'0 0.1
2018-Mar-27 03:58N 21°40' E 072°26'0 0.0
2018-Mar-27 03:28N 21°40' E 072°26'0 0.1
2018-Mar-27 02:58N 21°40' E 072°26'0 0.0
2018-Mar-27 02:16N 21°40' E 072°26'0 0.0
2018-Mar-27 01:52N 21°40' E 072°26'0 0.0
2018-Mar-27 01:28N 21°40' E 072°26'0 0.0
2018-Mar-26 20:40N 21°40' E 072°26'0 0.1
2018-Mar-26 20:16N 21°40' E 072°26'0 0.1
2018-Mar-26 19:58N 21°40' E 072°26'0 0.0
2018-Mar-26 19:28N 21°40' E 072°26'0 0.0
2018-Mar-26 18:52N 21°40' E 072°26'0 0.0
2018-Mar-26 07:04N 21°40' E 072°26'0 0.1
2018-Mar-26 06:58N 21°40' E 072°26'0 0.0
2018-Mar-26 06:22N 21°40' E 072°26'0 0.0
2018-Mar-26 05:58N 21°40' E 072°26'0 0.0
2018-Mar-26 05:28N 21°40' E 072°26'0 0.0
2018-Mar-26 04:46N 21°40' E 072°26'0 0.0
2018-Mar-26 04:28N 21°40' E 072°26'0 0.0
2018-Mar-26 03:58N 21°40' E 072°26'0 0.0
2018-Mar-26 03:28N 21°40' E 072°26'0 0.0
2018-Mar-26 02:58N 21°40' E 072°26'0 0.0
2018-Mar-25 16:58N 21°40' E 072°26'0 0.0
2018-Mar-25 16:16N 21°40' E 072°26'0 0.0
2018-Mar-25 15:46N 21°40' E 072°26'0 0.0
2018-Mar-25 15:22N 21°40' E 072°26'0 0.0
2018-Mar-25 14:58N 21°40' E 072°26'0 0.0
2018-Mar-25 14:28N 21°40' E 072°26'0 0.0
2018-Mar-25 13:58N 21°40' E 072°26'0 0.0
2018-Mar-25 13:28N 21°40' E 072°26'0 0.0
2018-Mar-25 12:58N 21°40' E 072°26'0 0.1
2018-Mar-25 12:28N 21°40' E 072°26'0 0.0
2018-Mar-25 10:58N 21°40' E 072°26'0 0.0
2018-Mar-25 10:22N 21°40' E 072°26'0 0.0
2018-Mar-25 08:34N 21°40' E 072°26'0 0.0
2018-Mar-25 05:40N 21°40' E 072°26'0 0.1
2018-Mar-25 05:28N 21°40' E 072°26'0 0.0
2018-Mar-25 04:58N 21°40' E 072°26'0 0.0
2018-Mar-25 04:22N 21°40' E 072°26'0 0.0
2018-Mar-25 03:58N 21°40' E 072°26'0 0.0
2018-Mar-25 03:28N 21°40' E 072°26'0 0.0
2018-Mar-25 02:52N 21°40' E 072°26'0 0.0
2018-Mar-25 02:28N 21°40' E 072°26'0 0.0
2018-Mar-25 01:52N 21°40' E 072°26'0 0.1
2018-Mar-25 01:28N 21°40' E 072°26'0 0.0
2018-Mar-24 23:04N 21°40' E 072°26'0 0.0
2018-Mar-24 22:40N 21°40' E 072°26'0 0.0
2018-Mar-24 22:16N 21°40' E 072°26'0 0.0
2018-Mar-24 21:58N 21°40' E 072°26'0 0.0
2018-Mar-24 21:22N 21°40' E 072°26'0 0.0
2018-Mar-24 20:28N 21°40' E 072°26'0 0.0
2018-Mar-24 19:46N 21°40' E 072°26'0 0.0
2018-Mar-24 19:28N 21°40' E 072°26'0 0.0
2018-Mar-24 18:58N 21°40' E 072°26'0 0.0
2018-Mar-24 18:28N 21°40' E 072°26'0 0.0
2018-Mar-24 17:58N 21°40' E 072°26'0 0.0
2018-Mar-24 17:22N 21°40' E 072°26'0 0.1
2018-Mar-24 16:46N 21°40' E 072°26'0 0.1
2018-Mar-24 16:28N 21°40' E 072°26'0 0.0
2018-Mar-24 15:58N 21°40' E 072°26'0 0.0
2018-Mar-24 15:28N 21°40' E 072°26'0 0.0
2018-Mar-24 14:58N 21°40' E 072°26'0 0.0
2018-Mar-24 14:28N 21°40' E 072°26'0 0.0
2018-Mar-24 13:59N 21°40' E 072°26'0 0.0
2018-Mar-24 13:29N 21°40' E 072°26'0 0.0
2018-Mar-24 12:59N 21°40' E 072°26'0 0.0
2018-Mar-24 12:29N 21°40' E 072°26'0 0.0
2018-Mar-24 12:00N 21°40' E 072°26'0 0.2
2018-Mar-24 11:30N 21°40' E 072°26'0 0.0
2018-Mar-24 07:33N 21°40' E 072°26'0 0.1
2018-Mar-24 07:30N 21°40' E 072°26'0 0.4
2018-Mar-24 07:00N 21°40' E 072°26'0 0.8
2018-Mar-24 06:30N 21°40' E 072°26'2 4.8
2018-Mar-24 06:00N 21°38' E 072°26'4 8.9
2018-Mar-24 05:30N 21°33' E 072°25'611.3
2018-Mar-24 05:00N 21°28' E 072°22'611.2
2018-Mar-24 04:30N 21°23' E 072°19'611.3
2018-Mar-24 04:00N 21°18' E 072°16'611.7
2018-Mar-24 03:29N 21°13' E 072°14'611.8
2018-Mar-24 03:00N 21°09' E 072°09'612.2
2018-Mar-24 02:30N 21°06' E 072°04'612.3
2018-Mar-24 02:00N 21°02' E 071°58'713.4
2018-Mar-24 01:30N 20°58' E 071°53'815.6
2018-Mar-24 01:00N 20°53' E 071°46'1016.9
2018-Mar-24 00:23N 20°48' E 071°36'616.6
2018-Mar-24 00:01N 20°45' E 071°31'816.8
2018-Mar-23 23:30N 20°40' E 071°23'917.3
2018-Mar-23 23:00N 20°36' E 071°15'918.0
2018-Mar-23 22:31N 20°30' E 071°08'917.8
2018-Mar-23 22:00N 20°25' E 070°59'817.2
2018-Mar-23 21:31N 20°19' E 070°53'917.2
2018-Mar-23 21:00N 20°12' E 070°49'917.2
2018-Mar-23 20:30N 20°04' E 070°46'917.2
2018-Mar-23 20:00N 19°56' E 070°42'817.0
2018-Mar-23 19:31N 19°48' E 070°38'917.2
2018-Mar-23 19:00N 19°40' E 070°34'917.1
2018-Mar-23 18:30N 19°32' E 070°30'1117.0
2018-Mar-23 17:52N 19°23' E 070°26'617.0
2018-Mar-23 17:30N 19°16' E 070°26'916.8
2018-Mar-23 17:00N 19°08' E 070°26'817.0
2018-Mar-23 16:30N 18°60' E 070°26'917.0
2018-Mar-23 15:59N 18°51' E 070°26'816.8
2018-Mar-23 15:30N 18°43' E 070°27'2816.6
2018-Mar-23 13:48N 18°19' E 070°43'517.2
2018-Mar-23 13:30N 18°15' E 070°47'6216.6
2018-Mar-23 09:45N 17°18' E 071°12'517.6
2018-Mar-23 09:27N 17°14' E 071°16'  

Dump ship's entire track history